Data for 09/06/2007

Time Sea-Level Adjusted Pressure Absolute Pressure Temperature Relative Humidity Dew Point   
(mb) (inHg) (mb) (inHg) (C) (F) (%) (C) (F)
00:05 1015 29.97 845 24.95 12.6 54.7 91 11.2 52.2
00:10 1015 29.97 845 24.95 12.5 54.6 92 11.2 52.2
00:15 1015 29.97 845 24.95 12.4 54.4 91 11 51.8
00:20 1015 29.97 845 24.95 12.2 54 93 11.1 51.9
00:25 1015 29.97 845 24.95 12 53.6 94 11.1 51.9
00:30 1015 29.97 845 24.95 11.9 53.4 95 11.1 52
00:35 1015 29.97 845 24.95 11.9 53.4 95 11.1 52
00:40 1015 29.97 845 24.95 11.9 53.3 95 11.1 52.1
00:45 1015 29.97 844 24.92 11.9 53.5 95 11.2 52.1
00:50 1015 29.97 844 24.92 11.9 53.4 95 11.1 52
00:55 1015 29.97 844 24.92 12 53.5 95 11.1 52
01:00 1015 29.97 844 24.92 12 53.5 94 11.1 51.9
01:05 1015 29.97 844 24.92 12 53.6 94 11 51.8
01:10 1015 29.97 844 24.92 12 53.6 94 11 51.9
01:15 1015 29.97 844 24.92 12 53.6 93 11 51.7
01:20 1015 29.97 844 24.92 12 53.6 93 10.9 51.6
01:25 1015 29.97 844 24.92 12 53.7 93 10.9 51.6
01:30 1015 29.97 844 24.92 12.1 53.7 92 10.9 51.5
01:35 1015 29.97 844 24.92 12.1 53.7 92 10.8 51.4
01:40 1015 29.97 844 24.92 12.1 53.7 92 10.8 51.4
01:45 1015 29.97 844 24.92 12 53.7 92 10.8 51.5
01:50 1015 29.97 844 24.92 12.1 53.7 92 10.8 51.4
01:55 1015 29.97 844 24.92 12.2 53.9 92 10.9 51.6
02:00 1015 29.97 844 24.92 12.2 54 91 10.9 51.6
02:05 1015 29.97 844 24.92 12.2 53.9 92 10.9 51.6
02:10 1015 29.97 844 24.92 12.2 53.9 92 11 51.7
02:15 1015 29.97 844 24.92 12.1 53.7 93 10.9 51.6
02:20 1015 29.97 844 24.92 12 53.6 93 10.9 51.7
02:25 1015 29.97 844 24.92 12 53.5 93 10.9 51.6
02:30 1015 29.97 844 24.92 12 53.5 93 10.9 51.7
02:35 1015 29.97 844 24.92 12.1 53.7 94 11.1 52
02:40 1015 29.97 844 24.92 12.1 53.7 94 11.2 52.1
02:45 1015 29.97 844 24.92 12 53.6 93 11 51.8
02:50 1015 29.97 844 24.92 12 53.5 94 11 51.9
02:55 1015 29.97 844 24.92 11.9 53.4 95 11.2 52.1
03:00 1015 29.97 844 24.92 11.9 53.4 96 11.2 52.2
03:05 1015 29.97 844 24.92 11.8 53.3 95 11.1 51.9
03:10 1015 29.97 844 24.92 11.8 53.3 95 11.1 52
03:15 1015 29.97 844 24.92 11.8 53.3 94 10.9 51.7
03:20 1015 29.97 844 24.92 11.9 53.3 94 10.9 51.7
03:25 1015 29.97 844 24.92 11.8 53.3 93 10.7 51.3
03:30 1015 29.97 844 24.92 11.9 53.4 93 10.8 51.5
03:35 1015 29.97 844 24.92 11.9 53.4 93 10.8 51.4
03:40 1015 29.97 844 24.92 11.8 53.2 93 10.7 51.3
03:45 1015 29.97 844 24.92 11.9 53.4 93 10.8 51.4
03:50 1015 29.97 844 24.92 11.9 53.3 92 10.6 51.1
03:55 1015 29.97 844 24.92 11.8 53.2 93 10.7 51.2
04:00 1015 29.97 844 24.92 11.6 52.9 94 10.6 51.1
04:05 1015 29.97 844 24.92 11.6 52.8 94 10.7 51.2
04:10 1015 29.97 844 24.92 11.4 52.6 95 10.6 51.2
04:15 1015 29.97 844 24.92 11.4 52.5 95 10.6 51
04:20 1015 29.97 844 24.92 11.4 52.5 95 10.6 51
04:25 1015 29.97 844 24.92 11.4 52.5 95 10.6 51.1
04:30 1015 29.97 844 24.92 11.4 52.6 95 10.6 51.1
04:35 1015 29.97 844 24.92 11.5 52.6 95 10.7 51.2
04:40 1015 29.97 844 24.92 11.5 52.8 95 10.8 51.4
04:45 1015 29.97 844 24.92 11.6 52.9 94 10.7 51.3
04:50 1015 29.97 844 24.92 11.7 53 92 10.5 50.9
04:55 1015 29.97 844 24.92 11.6 52.9 91 10.1 50.3
05:00 1015 29.97 844 24.92 11.6 52.9 89 9.9 49.9
05:05 1015 29.97 844 24.92 11.6 52.8 89 9.8 49.6
05:10 1015 29.97 844 24.92 11.7 53.1 88 9.9 49.7
05:15 1015 29.97 844 24.92 11.7 53.1 88 9.9 49.8
05:20 1015 29.97 844 24.92 11.7 53 88 9.7 49.5
05:25 1015 29.97 844 24.92 11.6 52.8 89 9.8 49.6
05:30 1015 29.97 844 24.92 11.5 52.8 88 9.7 49.5
05:35 1015 29.97 844 24.92 11.6 52.8 89 9.8 49.6
05:40 1015 29.97 844 24.92 11.6 52.8 89 9.8 49.6
05:45 1015 29.97 844 24.92 11.6 53 89 10 49.9
05:50 1015 29.97 844 24.92 11.5 52.7 91 10 50.1
05:55 1015 29.97 844 24.92 11.4 52.4 90 9.8 49.6
06:00 1015 29.97 844 24.92 11.4 52.5 90 9.8 49.6
06:05 1015 29.97 844 24.92 11.4 52.6 90 9.8 49.6
06:10 1015 29.97 844 24.92 11.4 52.4 89 9.6 49.3
06:15 1015 29.97 844 24.92 11.3 52.4 89 9.6 49.2
06:20 1015 29.97 844 24.92 11.3 52.3 89 9.6 49.2
06:25 1015 29.97 844 24.92 11.4 52.4 89 9.7 49.4
06:30 1015 29.97 845 24.95 11.3 52.4 90 9.8 49.6
06:35 1015 29.97 845 24.95 11.2 52.2 91 9.8 49.6
06:40 1015 29.97 845 24.95 11.3 52.3 90 9.6 49.4
06:45 1016 30 845 24.95 11.3 52.4 90 9.8 49.6
06:50 1016 30 845 24.95 11.3 52.3 91 9.9 49.9
06:55 1016 30 845 24.95 11.4 52.4 92 10.1 50.2
07:00 1016 30 845 24.95 11.4 52.6 92 10.3 50.5
07:05 1016 30 845 24.95 11.5 52.7 92 10.3 50.5
07:10 1016 30 845 24.95 11.5 52.6 92 10.3 50.5
07:15 1016 30 845 24.95 11.5 52.7 91 10.1 50.2
07:20 1016 30 845 24.95 11.6 52.8 91 10.2 50.3
07:25 1016 30 845 24.95 11.6 52.9 92 10.3 50.6
07:30 1016 30 845 24.95 11.6 52.9 91 10.3 50.5
07:35 1016 30 845 24.95 11.6 52.9 91 10.3 50.5
07:40 1016 30 845 24.95 11.7 53.1 92 10.4 50.7
07:45 1016 30 845 24.95 11.7 53 91 10.2 50.4
07:50 1016 30 845 24.95 11.6 52.9 91 10.1 50.2
07:55 1016 30 845 24.95 11.7 53.1 90 10.2 50.3
08:00 1016 30 846 24.98 11.8 53.2 90 10.2 50.3
08:05 1016 30 846 24.98 11.8 53.2 89 10.1 50.1
08:10 1016 30 846 24.98 11.9 53.4 89 10.1 50.1
08:15 1016 30 846 24.98 11.9 53.4 90 10.3 50.5
08:20 1016 30 846 24.98 11.7 53 89 10 50
08:25 1017 30.03 846 24.98 11.6 52.9 90 10 50
08:30 1017 30.03 846 24.98 11.8 53.3 88 10 49.9
08:35 1017 30.03 846 24.98 11.9 53.3 88 10 50
08:40 1017 30.03 846 24.98 11.8 53.2 89 10 49.9
08:45 1017 30.03 846 24.98 11.8 53.2 90 10.2 50.3
08:50 1017 30.03 846 24.98 11.8 53.2 91 10.3 50.5
08:55 1017 30.03 846 24.98 11.8 53.2 90 10.2 50.3
09:00 1017 30.03 846 24.98 11.9 53.4 89 10.2 50.3
09:05 1017 30.03 846 24.98 12 53.6 87 10 49.9
09:10 1017 30.03 846 24.98 12.1 53.9 85 9.8 49.6
09:15 1017 30.03 846 24.98 12.2 53.9 87 10 50.1
09:20 1017 30.03 846 24.98 12.3 54.2 84 9.8 49.6
09:25 1017 30.03 846 24.98 12.5 54.5 84 10 50
09:30 1017 30.03 846 24.98 12.5 54.6 84 10 50
09:35 1017 30.03 846 24.98 12.6 54.7 84 10 50.1
09:40 1017 30.03 846 24.98 12.8 55 84 10.2 50.4
09:45 1017 30.03 846 24.98 13 55.4 84 10.3 50.6
09:50 1017 30.03 846 24.98 13.3 55.9 83 10.4 50.8
09:55 1017 30.03 846 24.98 13.7 56.6 82 10.8 51.4
10:00 1017 30.03 846 24.98 14.2 57.5 78 10.4 50.7
10:05 1017 30.03 847 25.01 14.6 58.2 77 10.7 51.3
10:10 1017 30.03 847 25.01 14.8 58.6 76 10.7 51.2
10:15 1017 30.03 847 25.01 14.8 58.7 76 10.6 51.1
10:20 1017 30.03 847 25.01 15.1 59.2 75 10.8 51.5
10:25 1017 30.03 847 25.01 15.1 59.2 71 10 50
10:30 1018 30.06 847 25.01 14.9 58.9 73 10.2 50.4
10:35 1018 30.06 847 25.01 15 59 73 10.2 50.4
10:40 1018 30.06 847 25.01 15.3 59.6 69 9.6 49.3
10:45 1018 30.06 847 25.01 15.3 59.6 69 9.9 49.7
10:50 1018 30.06 847 25.01 15.4 59.8 69 9.9 49.8
10:55 1018 30.06 847 25.01 15.6 60 69 9.9 49.7
11:00 1018 30.06 847 25.01 15.9 60.7 68 10.1 50.2
11:05 1018 30.06 847 25.01 16.6 61.9 65 10.2 50.3
11:10 1018 30.06 847 25.01 16.7 62 65 10 50
11:15 1018 30.06 847 25.01 17 62.6 59 9 48.1
11:20 1018 30.06 847 25.01 17.5 63.5 56 8.8 47.8
11:25 1018 30.06 847 25.01 17.8 64.1 56 9.1 48.3
11:30 1018 30.06 847 25.01 17 62.7 56 8.4 47.1
11:35 1018 30.06 847 25.01 17 62.5 57 8.5 47.3
11:40 1018 30.06 847 25.01 17.4 63.4 53 7.8 46.1
11:45 1018 30.06 847 25.01 17.7 63.8 54 8.2 46.8
11:50 1018 30.06 847 25.01 17.9 64.2 50 7.5 45.4
11:55 1018 30.06 847 25.01 18.4 65 47 7 44.5
12:00 1017 30.03 847 25.01 18.7 65.7 49 7.9 46.3
12:05 1017 30.03 847 25.01 17.8 64 54 8.5 47.4
12:10 1017 30.03 847 25.01 18.1 64.5 53 8.4 47.1
12:15 1018 30.06 847 25.01 18.3 65 49 7.5 45.5
12:20 1018 30.06 847 25.01 18.3 64.9 52 8.3 46.9
12:25 1017 30.03 847 25.01 18.4 65.1 48 7.4 45.3
12:30 1017 30.03 847 25.01 19.1 66.4 45 7.2 44.9
12:35 1017 30.03 847 25.01 18.8 65.8 49 7.9 46.2
12:40 1018 30.06 847 25.01 18.6 65.5 47 7.4 45.2
12:45 1018 30.06 847 25.01 18.6 65.4 50 7.9 46.3
12:50 1018 30.06 847 25.01 19 66.2 46 7.4 45.3
12:55 1018 30.06 847 25.01 19.5 67.2 43 6.8 44.2
13:00 1018 30.06 847 25.01 20.2 68.4 43 7.4 45.3
13:05 1017 30.03 847 25.01 20.3 68.5 43 7.6 45.6
13:10 1017 30.03 847 25.01 19.7 67.4 46 8 46.4
13:15 1018 30.06 847 25.01 19 66.1 46 7.3 45.2
13:20 1017 30.03 847 25.01 19.3 66.8 44 7.1 44.7
13:25 1017 30.03 847 25.01 20.4 68.7 42 7.3 45.1
13:30 1017 30.03 847 25.01 20.5 68.9 41 7.1 44.7
13:35 1017 30.03 847 25.01 20.5 68.8 44 7.8 46
13:40 1017 30.03 847 25.01 20.1 68.2 45 7.9 46.2
13:45 1017 30.03 847 25.01 20.8 69.4 38 6 42.8
13:50 1017 30.03 847 25.01 20.8 69.5 36 5.4 41.7
13:55 1017 30.03 847 25.01 21.2 70.1 37 6.2 43.1
14:00 1017 30.03 847 25.01 21 69.8 39 6.9 44.4
14:05 1017 30.03 847 25.01 20.5 69 40 6.5 43.7
14:10 1017 30.03 847 25.01 20.8 69.5 40 6.7 44.1
14:15 1017 30.03 846 24.98 21 69.8 40 6.9 44.5
14:20 1017 30.03 846 24.98 21.2 70.2 38 6.6 43.9
14:25 1017 30.03 846 24.98 20.9 69.5 38 6 42.9
14:30 1017 30.03 846 24.98 21.2 70.1 35 5.2 41.4
14:35 1017 30.03 846 24.98 21.3 70.4 35 5.5 42
14:40 1017 30.03 846 24.98 20.4 68.6 37 5.5 41.9
14:45 1017 30.03 846 24.98 20.5 68.9 37 5.4 41.7
14:50 1017 30.03 846 24.98 20.8 69.5 38 6.2 43.1
14:55 1017 30.03 846 24.98 21.1 70.1 35 5.3 41.6
15:00 1017 30.03 846 24.98 21.4 70.6 33 4.7 40.4
15:05 1017 30.03 846 24.98 21.4 70.5 34 5.1 41.3
15:10 1017 30.03 846 24.98 21.6 71 32 4.6 40.3
15:15 1017 30.03 846 24.98 21.3 70.4 33 4.8 40.6
15:20 1017 30.03 846 24.98 21.9 71.4 30 4 39.2
15:25 1017 30.03 846 24.98 21.9 71.5 31 4.4 40
15:30 1017 30.03 846 24.98 21.9 71.4 33 5.1 41.2
15:35 1017 30.03 846 24.98 21.2 70.2 33 4.7 40.5
15:40 1017 30.03 846 24.98 21.5 70.6 32 4.2 39.6
15:45 1017 30.03 846 24.98 21.8 71.2 30 3.9 39
15:50 1017 30.03 846 24.98 22.1 71.7 29 3.5 38.3
15:55 1017 30.03 846 24.98 22.4 72.3 30 3.9 39.1
16:00 1017 30.03 846 24.98 21.5 70.8 32 4.3 39.7
16:05 1017 30.03 846 24.98 21 69.8 31 3.3 38
16:10 1017 30.03 846 24.98 21.2 70.1 31 3.5 38.3
16:15 1017 30.03 846 24.98 22.3 72.1 28 3.2 37.8
16:20 1017 30.03 846 24.98 22.9 73.2 26 2.8 37
16:25 1017 30.03 846 24.98 22.6 72.6 27 2.7 36.8
16:30 1017 30.03 846 24.98 22.3 72.2 29 3.6 38.5
16:35 1017 30.03 846 24.98 21.7 71 30 3.4 38.1
16:40 1017 30.03 846 24.98 21.1 70 31 3.4 38.2
16:45 1017 30.03 846 24.98 20.8 69.5 33 4.2 39.5
16:50 1017 30.03 846 24.98 20.6 69 33 4.1 39.3
16:55 1017 30.03 846 24.98 20.4 68.6 35 4.4 39.8
17:00 1017 30.03 846 24.98 20.5 68.8 35 4.6 40.3
17:05 1017 30.03 846 24.98 21.2 70.2 34 4.8 40.6
17:10 1017 30.03 846 24.98 21.6 70.8 32 4.3 39.8
17:15 1017 30.03 846 24.98 22 71.6 32 4.6 40.2
17:20 1017 30.03 846 24.98 22.2 72 29 3.5 38.2
17:25 1017 30.03 846 24.98 22.2 71.9 30 4 39.2
17:30 1017 30.03 846 24.98 21.8 71.3 31 4.2 39.5
17:35 1017 30.03 846 24.98 21.2 70.1 34 4.8 40.6
17:40 1017 30.03 846 24.98 20.7 69.3 34 4.5 40.1
17:45 1017 30.03 846 24.98 20.4 68.8 34 4.4 39.8
17:50 1017 30.03 846 24.98 20.5 68.9 33 3.9 39.1
17:55 1017 30.03 846 24.98 20.8 69.5 33 4.2 39.5
18:00 1017 30.03 846 24.98 20.9 69.7 32 3.7 38.7
18:05 1017 30.03 846 24.98 21.2 70.2 32 4.2 39.5
18:10 1017 30.03 846 24.98 21.4 70.4 32 4.1 39.4
18:15 1017 30.03 846 24.98 21.3 70.3 33 4.4 39.9
18:20 1017 30.03 846 24.98 21.1 69.9 32 4 39.2
18:25 1017 30.03 846 24.98 21 69.7 33 4.2 39.6
18:30 1017 30.03 847 25.01 20.7 69.3 33 4.1 39.4
18:35 1017 30.03 847 25.01 20.8 69.4 33 4.2 39.5
18:40 1018 30.06 847 25.01 20.7 69.2 33 3.9 39
18:45 1018 30.06 847 25.01 20.6 69.1 33 4 39.2
18:50 1018 30.06 847 25.01 20.5 68.9 34 4.1 39.3
18:55 1018 30.06 847 25.01 20.6 69.1 33 4.1 39.4
19:00 1018 30.06 847 25.01 20.5 69 33 3.9 39
19:05 1018 30.06 847 25.01 20.3 68.6 34 3.9 39.1
19:10 1018 30.06 847 25.01 20.1 68.1 34 4 39.3
19:15 1018 30.06 847 25.01 19.9 67.8 34 3.9 39
19:20 1018 30.06 847 25.01 19.8 67.6 34 3.8 38.8
19:25 1018 30.06 847 25.01 19.7 67.4 35 3.8 38.9
19:30 1018 30.06 847 25.01 19.5 67 35 3.8 38.9
19:35 1018 30.06 847 25.01 19.4 66.9 35 3.8 38.8
19:40 1018 30.06 847 25.01 19.3 66.7 35 3.7 38.7
19:45 1018 30.06 847 25.01 19.1 66.3 37 4.1 39.3
19:50 1018 30.06 847 25.01 18.7 65.6 39 4.5 40.1
19:55 1018 30.06 847 25.01 18.4 65.1 38 3.9 39
20:00 1018 30.06 847 25.01 18.4 65.1 38 4 39.3
20:05 1018 30.06 847 25.01 18.4 65.2 38 3.9 39
20:10 1018 30.06 847 25.01 18.3 65 39 4.1 39.4
20:15 1018 30.06 847 25.01 18.3 64.9 39 4.3 39.8
20:20 1018 30.06 847 25.01 18.2 64.8 39 4.2 39.6
20:25 1018 30.06 847 25.01 18.3 64.9 39 4.3 39.8
20:30 1018 30.06 847 25.01 18.2 64.7 39 4 39.3
20:35 1018 30.06 848 25.04 18.2 64.7 39 4.1 39.3
20:40 1018 30.06 848 25.04 17.9 64.2 42 4.8 40.7
20:45 1018 30.06 848 25.04 17.6 63.6 43 4.8 40.7
20:50 1018 30.06 848 25.04 17.5 63.6 42 4.5 40.2
20:55 1019 30.09 848 25.04 17.4 63.3 44 5 41.1
21:00 1019 30.09 848 25.04 17.2 63 43 4.7 40.4
21:05 1019 30.09 848 25.04 17.1 62.8 46 5.4 41.7
21:10 1019 30.09 848 25.04 16.8 62.3 46 5.2 41.4
21:15 1019 30.09 848 25.04 16.9 62.5 43 4.3 39.7
21:20 1019 30.09 848 25.04 17.3 63.2 42 4.5 40.1
21:25 1019 30.09 848 25.04 17.3 63.2 42 4.5 40
21:30 1019 30.09 848 25.04 17.2 63 43 4.7 40.5
21:35 1019 30.09 848 25.04 16.9 62.4 44 4.7 40.5
21:40 1019 30.09 849 25.07 16.5 61.6 46 4.9 40.9
21:45 1019 30.09 849 25.07 16.1 61.1 46 4.8 40.6
21:50 1019 30.09 849 25.07 16.1 60.9 46 4.6 40.3
21:55 1019 30.09 849 25.07 16 60.9 46 4.7 40.4
22:00 1020 30.12 849 25.07 16 60.9 46 4.6 40.3
22:05 1020 30.12 849 25.07 16.1 60.9 46 4.6 40.4
22:10 1020 30.12 849 25.07 16.1 60.9 46 4.5 40.2
22:15 1020 30.12 849 25.07 16.1 60.9 45 4.3 39.8
22:20 1020 30.12 849 25.07 16.2 61.2 46 4.6 40.2
22:25 1020 30.12 849 25.07 16.1 61 46 4.6 40.3
22:30 1020 30.12 849 25.07 16 60.8 47 4.7 40.4
22:35 1020 30.12 849 25.07 15.9 60.6 47 4.7 40.5
22:40 1020 30.12 849 25.07 15.7 60.3 48 4.9 40.9
22:45 1020 30.12 849 25.07 15.5 59.8 50 5.2 41.3
22:50 1020 30.12 849 25.07 15 58.9 52 5.4 41.7
22:55 1020 30.12 849 25.07 14.4 57.8 54 5.2 41.3
23:00 1020 30.12 849 25.07 14.1 57.3 53 4.6 40.3
23:05 1020 30.12 849 25.07 14.5 58.1 50 4.2 39.5
23:10 1020 30.12 850 25.1 15 59 49 4.5 40.1
23:15 1020 30.12 850 25.1 15.1 59.3 48 4.3 39.7
23:20 1020 30.12 850 25.1 15.3 59.5 47 4.1 39.4
23:25 1020 30.12 850 25.1 15.3 59.6 46 4 39.1
23:30 1020 30.12 850 25.1 15.3 59.5 47 4.2 39.6
23:35 1021 30.15 850 25.1 15.1 59.2 48 4.2 39.5
23:40 1021 30.15 850 25.1 15.1 59.2 47 3.9 39
23:45 1021 30.15 850 25.1 14.9 58.9 50 4.6 40.2
23:50 1021 30.15 850 25.1 14.2 57.5 53 4.7 40.5
23:55 1021 30.15 850 25.1 13.9 57.1 52 4.2 39.6
24:00 1021 30.15 850 25.1 14.2 57.6 51 4.4 39.9